createdAt,value
2023-06-19T00:03:11.682Z,13.81
2023-06-19T00:08:18.710Z,13.77
2023-06-19T00:13:25.755Z,13.71
2023-06-19T00:18:41.725Z,13.64
2023-06-19T00:23:49.055Z,13.60
2023-06-19T00:28:57.447Z,13.54
2023-06-19T00:34:04.465Z,13.47
2023-06-19T00:39:12.062Z,13.39
2023-06-19T00:44:20.562Z,13.33
2023-06-19T00:49:27.855Z,13.25
2023-06-19T00:54:35.252Z,13.19
2023-06-19T00:59:42.409Z,13.13
2023-06-19T01:04:49.481Z,13.06
2023-06-19T01:10:01.323Z,13.00
2023-06-19T01:15:10.445Z,12.96
2023-06-19T01:20:18.904Z,12.90
2023-06-19T01:25:26.470Z,12.87
2023-06-19T01:30:34.103Z,12.81
2023-06-19T01:35:44.263Z,12.77
2023-06-19T01:40:52.630Z,12.72
2023-06-19T01:45:59.965Z,12.66
2023-06-19T01:51:08.474Z,12.62
2023-06-19T01:56:15.449Z,12.59
2023-06-19T02:01:22.446Z,12.55
2023-06-19T02:06:31.817Z,12.50
2023-06-19T02:11:38.826Z,12.43
2023-06-19T02:16:48.386Z,12.35
2023-06-19T02:21:55.565Z,12.32
2023-06-19T02:27:03.666Z,12.29
2023-06-19T02:32:11.963Z,12.25
2023-06-19T02:37:19.057Z,12.20
2023-06-19T02:42:25.975Z,12.18
2023-06-19T02:47:33.048Z,12.16
2023-06-19T02:52:40.080Z,12.13
2023-06-19T02:57:47.297Z,12.11
2023-06-19T03:02:54.841Z,12.08
2023-06-19T03:08:02.057Z,12.07
2023-06-19T03:13:09.120Z,12.06
2023-06-19T03:18:16.425Z,12.06
2023-06-19T03:23:23.468Z,12.08
2023-06-19T03:28:31.535Z,12.16
2023-06-19T03:33:39.204Z,12.22
2023-06-19T03:38:47.440Z,12.29
2023-06-19T03:43:55.038Z,12.38
2023-06-19T03:49:02.047Z,12.49
2023-06-19T03:54:09.108Z,12.69
2023-06-19T03:59:16.650Z,12.92
2023-06-19T04:04:23.931Z,13.19
2023-06-19T04:09:31.055Z,13.50
2023-06-19T04:14:38.057Z,13.82
2023-06-19T04:19:45.237Z,14.13
2023-06-19T04:24:52.237Z,14.45
2023-06-19T04:29:59.380Z,14.79
2023-06-19T04:35:07.383Z,15.13
2023-06-19T04:40:15.009Z,15.42
2023-06-19T04:45:22.240Z,15.65
2023-06-19T04:50:29.154Z,15.86
2023-06-19T04:55:36.173Z,16.04
2023-06-19T05:00:43.576Z,16.21
2023-06-19T05:05:50.665Z,16.38
2023-06-19T05:10:58.925Z,16.53
2023-06-19T05:16:06.165Z,16.79
2023-06-19T05:21:13.963Z,16.96
2023-06-19T05:26:21.745Z,17.05
2023-06-19T05:31:28.908Z,17.19
2023-06-19T05:36:35.836Z,17.44
2023-06-19T05:41:43.409Z,17.68
2023-06-19T05:46:50.744Z,18.05
2023-06-19T05:52:00.440Z,18.49
2023-06-19T05:57:09.586Z,18.78
2023-06-19T06:02:16.520Z,19.08
2023-06-19T06:07:23.634Z,19.29
2023-06-19T06:12:30.524Z,19.46
2023-06-19T06:17:37.521Z,19.69
2023-06-19T06:22:45.132Z,19.89
2023-06-19T06:27:52.642Z,20.13
2023-06-19T06:32:59.667Z,20.38
2023-06-19T06:38:06.638Z,20.68
2023-06-19T06:43:13.461Z,20.90
2023-06-19T06:48:20.545Z,21.20
2023-06-19T06:53:29.161Z,21.34
2023-06-19T06:58:36.057Z,21.61
2023-06-19T07:03:43.239Z,21.81
2023-06-19T07:08:50.394Z,21.98
2023-06-19T07:13:57.347Z,22.13
2023-06-19T07:19:04.342Z,22.36
2023-06-19T07:24:11.854Z,22.51
2023-06-19T07:29:18.974Z,22.66
2023-06-19T07:34:26.426Z,22.88
2023-06-19T07:39:33.441Z,23.14
2023-06-19T07:44:40.420Z,23.47
2023-06-19T07:49:47.748Z,23.72
2023-06-19T07:54:59.018Z,23.90
2023-06-19T08:00:12.506Z,24.16
2023-06-19T08:05:20.221Z,24.39
2023-06-19T08:10:27.719Z,24.73
2023-06-19T08:15:35.476Z,24.86
2023-06-19T08:20:42.529Z,25.03
2023-06-19T08:25:49.547Z,25.25
2023-06-19T08:30:56.447Z,25.42
2023-06-19T08:36:03.876Z,25.46
2023-06-19T08:41:10.958Z,25.53
2023-06-19T08:46:20.586Z,25.79
2023-06-19T08:51:32.611Z,26.00
2023-06-19T08:56:43.170Z,26.20
2023-06-19T09:01:53.794Z,26.23
2023-06-19T09:07:11.682Z,26.29
2023-06-19T09:12:25.340Z,26.39
2023-06-19T09:17:38.747Z,26.66
2023-06-19T09:22:58.159Z,26.85
2023-06-19T09:28:05.365Z,26.89
2023-06-19T09:33:12.471Z,27.08
2023-06-19T09:38:22.593Z,27.25
2023-06-19T09:43:35.742Z,27.28
2023-06-19T09:48:47.582Z,27.12
2023-06-19T09:53:54.682Z,27.14
2023-06-19T09:59:04.046Z,27.27
2023-06-19T10:04:12.508Z,27.21
2023-06-19T10:09:20.408Z,27.21
2023-06-19T10:14:27.598Z,27.31
2023-06-19T10:19:37.703Z,27.31
2023-06-19T10:24:52.993Z,27.43
2023-06-19T10:30:06.392Z,27.96
2023-06-19T10:35:25.229Z,28.42
2023-06-19T10:40:32.354Z,28.76
2023-06-19T10:45:39.337Z,29.01
2023-06-19T10:50:46.780Z,29.11
2023-06-19T10:55:58.488Z,29.07
2023-06-19T11:01:05.897Z,29.35
2023-06-19T11:06:13.267Z,29.85
2023-06-19T11:11:21.536Z,30.32
2023-06-19T11:16:29.752Z,30.68
2023-06-19T11:21:39.348Z,30.86
2023-06-19T11:26:51.940Z,30.76
2023-06-19T11:32:11.918Z,30.93
2023-06-19T11:37:22.172Z,31.23
2023-06-19T11:42:31.174Z,31.25
2023-06-19T11:47:38.801Z,31.11
2023-06-19T11:52:47.006Z,31.14
2023-06-19T11:57:52.426Z,31.30
2023-06-19T12:03:00.078Z,31.88
2023-06-19T12:08:08.074Z,32.10
2023-06-19T12:13:15.095Z,32.20
2023-06-19T12:18:22.302Z,32.51
2023-06-19T12:23:29.730Z,33.05
2023-06-19T12:28:36.927Z,33.45
2023-06-19T12:33:44.948Z,33.25
2023-06-19T12:38:51.967Z,33.03
2023-06-19T12:43:59.268Z,32.96
2023-06-19T12:49:06.268Z,32.96
2023-06-19T12:54:13.132Z,32.81
2023-06-19T12:59:20.633Z,32.62
2023-06-19T13:04:27.634Z,32.89
2023-06-19T13:09:34.694Z,33.18
2023-06-19T13:14:41.624Z,32.98
2023-06-19T13:19:48.528Z,32.76
2023-06-19T13:24:56.776Z,32.73
2023-06-19T13:30:04.769Z,32.62
2023-06-19T13:35:12.155Z,32.84
2023-06-19T13:40:19.138Z,33.55
2023-06-19T13:45:26.330Z,34.41
2023-06-19T13:50:34.134Z,35.01
2023-06-19T13:55:41.088Z,35.42
2023-06-19T14:00:48.737Z,35.74
2023-06-19T14:05:56.434Z,35.51
2023-06-19T14:11:03.481Z,35.61
2023-06-19T14:16:10.912Z,36.07
2023-06-19T14:21:17.899Z,35.73
2023-06-19T14:26:24.916Z,36.43
2023-06-19T14:31:31.918Z,36.42
2023-06-19T14:36:40.817Z,36.70
2023-06-19T14:41:47.917Z,36.36
2023-06-19T14:46:54.938Z,35.59
2023-06-19T14:52:02.104Z,34.95
2023-06-19T14:57:10.239Z,34.89
2023-06-19T15:02:17.274Z,34.88
2023-06-19T15:07:25.067Z,34.98
2023-06-19T15:12:33.342Z,35.48
2023-06-19T15:17:41.092Z,35.62
2023-06-19T15:22:48.187Z,35.31
2023-06-19T15:27:55.281Z,35.17
2023-06-19T15:33:00.790Z,34.53
2023-06-19T15:38:07.989Z,34.43
2023-06-19T15:43:15.042Z,34.08
2023-06-19T15:48:22.150Z,34.12
2023-06-19T15:53:29.236Z,34.27
2023-06-19T15:58:36.326Z,34.12
2023-06-19T16:03:44.097Z,34.31
2023-06-19T16:08:53.081Z,34.10
2023-06-19T16:14:00.704Z,33.96
2023-06-19T16:19:07.664Z,34.54
2023-06-19T16:24:14.603Z,34.39
2023-06-19T16:29:21.774Z,34.22
2023-06-19T16:34:31.109Z,33.70
2023-06-19T16:39:42.490Z,33.18
2023-06-19T16:44:49.485Z,32.50
2023-06-19T16:49:56.937Z,32.02
2023-06-19T16:55:04.030Z,31.58
2023-06-19T17:00:13.062Z,31.16
2023-06-19T17:05:22.291Z,30.79
2023-06-19T17:10:30.503Z,30.48
2023-06-19T17:15:36.036Z,30.30
2023-06-19T17:20:43.383Z,30.16
2023-06-19T17:25:50.550Z,30.39
2023-06-19T17:30:57.493Z,30.41
2023-06-19T17:36:05.099Z,30.66
2023-06-19T17:41:12.092Z,30.76
2023-06-19T17:46:19.036Z,30.63
2023-06-19T17:51:26.433Z,30.54
2023-06-19T17:56:33.458Z,30.32
2023-06-19T18:01:40.793Z,30.08
2023-06-19T18:06:47.777Z,29.77
2023-06-19T18:11:54.779Z,29.40
2023-06-19T18:17:04.865Z,29.02
2023-06-19T18:22:11.841Z,28.68
2023-06-19T18:27:19.645Z,28.25
2023-06-19T18:32:26.705Z,27.95
2023-06-19T18:37:33.876Z,27.60
2023-06-19T18:42:42.247Z,27.20
2023-06-19T18:47:49.414Z,26.80
2023-06-19T18:52:57.238Z,26.41
2023-06-19T18:58:04.256Z,26.03
2023-06-19T19:03:11.480Z,25.66
2023-06-19T19:08:18.621Z,25.32
2023-06-19T19:13:25.800Z,24.97
2023-06-19T19:18:32.799Z,24.68
2023-06-19T19:23:39.664Z,24.47
2023-06-19T19:28:46.635Z,24.11
2023-06-19T19:33:54.066Z,23.78
2023-06-19T19:39:01.114Z,23.47
2023-06-19T19:44:08.254Z,23.20
2023-06-19T19:49:15.250Z,23.00
2023-06-19T19:54:30.057Z,22.78
2023-06-19T19:59:46.057Z,22.54
2023-06-19T20:04:53.625Z,22.32
2023-06-19T20:10:01.712Z,22.13
2023-06-19T20:15:11.290Z,21.93
2023-06-19T20:20:18.289Z,21.80
2023-06-19T20:25:25.228Z,21.63
2023-06-19T20:30:32.963Z,21.56
2023-06-19T20:35:39.898Z,21.45
2023-06-19T20:40:46.767Z,21.35
2023-06-19T20:45:53.841Z,21.23
2023-06-19T20:51:00.738Z,21.10
2023-06-19T20:56:07.894Z,20.98
2023-06-19T21:01:14.818Z,20.88
2023-06-19T21:06:23.652Z,20.82
2023-06-19T21:11:30.597Z,20.77
2023-06-19T21:16:37.856Z,20.74
2023-06-19T21:21:44.792Z,20.70
2023-06-19T21:26:53.307Z,20.67
2023-06-19T21:32:00.263Z,20.65
2023-06-19T21:37:07.856Z,20.62
2023-06-19T21:42:14.925Z,20.57
2023-06-19T21:47:21.932Z,20.52
2023-06-19T21:52:28.853Z,20.48
2023-06-19T21:57:53.779Z,20.43
2023-06-19T22:03:04.933Z,20.37
2023-06-19T22:08:12.159Z,20.31
2023-06-19T22:13:19.087Z,20.24
2023-06-19T22:18:26.127Z,20.17
2023-06-19T22:23:33.568Z,20.09
2023-06-19T22:28:40.557Z,20.01
2023-06-19T22:33:51.543Z,19.95
2023-06-19T22:38:58.728Z,19.85
2023-06-19T22:44:05.964Z,19.76
2023-06-19T22:49:14.890Z,19.68
2023-06-19T22:54:21.891Z,19.58
2023-06-19T22:59:29.172Z,19.46
2023-06-19T23:04:36.938Z,19.35
2023-06-19T23:09:44.231Z,19.18
2023-06-19T23:14:51.212Z,19.04
2023-06-19T23:19:59.562Z,18.90
2023-06-19T23:25:07.474Z,18.77
2023-06-19T23:30:15.018Z,18.69
2023-06-19T23:35:24.351Z,18.60
2023-06-19T23:40:31.566Z,18.53
2023-06-19T23:45:38.477Z,18.46
2023-06-19T23:50:45.343Z,18.41
2023-06-19T23:55:52.475Z,18.34
